Bindloss, Canada
Current Conditions -  °F | °C
As of 7:00 AM on Thursday 30 Oct 2014 (Local Time) from CYXH Reporting Station
Freezing Drizzle Freezing Drizzle  
Wind Chill: 23°   Ceiling: 200
Heat Index: 32°   Visibility: 0.37mi
Dew Point: 32°   Wind: 12mph
Humidity: 100%   Direction: 80°E
Pressure: 30.27"   Gusts: NA
Location:  50.88°N, 110.27°W
Report Text: CYXH 301300Z 08010KT 3/8SM -FZDZ BR VV002 M00/M00 A3027 RMK FG8 SLP275
Loading
Personal Weather Stations






























Interactive Weather Map
Tropical Storm Tracking
New forecast layout! Learn more

10-Day Weather Forecast

Advertisements
Track Severe Weather on mobile